createdAt,value
2022-08-25T00:00:41.484Z,68.38
2022-08-25T00:01:41.503Z,68.38
2022-08-25T00:02:41.586Z,68.38
2022-08-25T00:03:42.458Z,68.49
2022-08-25T00:04:41.473Z,68.49
2022-08-25T00:05:41.493Z,68.49
2022-08-25T00:06:41.422Z,68.49
2022-08-25T00:07:41.412Z,68.59
2022-08-25T00:08:41.401Z,68.59
2022-08-25T00:09:41.409Z,68.32
2022-08-25T00:10:41.384Z,68.21
2022-08-25T00:11:41.382Z,68.21
2022-08-25T00:12:41.358Z,68.12
2022-08-25T00:13:41.353Z,68.12
2022-08-25T00:14:41.335Z,68.12
2022-08-25T00:15:41.383Z,68.21
2022-08-25T00:16:41.304Z,68.32
2022-08-25T00:17:41.292Z,68.32
2022-08-25T00:18:41.296Z,68.41
2022-08-25T00:19:41.298Z,68.52
2022-08-25T00:20:41.362Z,68.62
2022-08-25T00:21:42.268Z,68.72
2022-08-25T00:22:41.260Z,68.82
2022-08-25T00:23:41.232Z,68.92
2022-08-25T00:24:41.212Z,68.85
2022-08-25T00:25:41.230Z,69.06
2022-08-25T00:26:41.221Z,69.15
2022-08-25T00:27:41.189Z,69.15
2022-08-25T00:28:41.173Z,69.06
2022-08-25T00:29:41.167Z,69.15
2022-08-25T00:30:41.239Z,69.15
2022-08-25T00:31:41.195Z,69.25
2022-08-25T00:32:41.139Z,69.25
2022-08-25T00:33:41.125Z,69.45
2022-08-25T00:34:41.129Z,69.45
2022-08-25T00:35:41.093Z,69.35
2022-08-25T00:36:41.081Z,69.35
2022-08-25T00:37:41.087Z,69.25
2022-08-25T00:38:41.070Z,69.06
2022-08-25T00:39:41.065Z,69.15
2022-08-25T00:40:41.049Z,68.85
2022-08-25T00:41:41.036Z,68.75
2022-08-25T00:42:41.013Z,68.35
2022-08-25T00:43:41.021Z,68.32
2022-08-25T00:44:41.008Z,68.02
2022-08-25T00:45:41.004Z,68.02
2022-08-25T00:46:41.104Z,67.61
2022-08-25T00:47:41.922Z,67.61
2022-08-25T00:48:41.950Z,67.82
2022-08-25T00:49:41.901Z,67.91
2022-08-25T00:50:40.942Z,67.82
2022-08-25T00:51:40.920Z,67.82
2022-08-25T00:52:40.925Z,67.94
2022-08-25T00:53:40.897Z,68.05
2022-08-25T00:54:40.903Z,68.15
2022-08-25T00:55:40.882Z,68.35
2022-08-25T00:56:40.894Z,68.25
2022-08-25T00:57:40.859Z,68.45
2022-08-25T00:58:40.846Z,68.35
2022-08-25T00:59:40.850Z,68.55
2022-08-25T01:00:40.843Z,68.25
2022-08-25T01:01:40.888Z,68.25
2022-08-25T01:02:40.856Z,68.25
2022-08-25T01:03:40.811Z,68.15
2022-08-25T01:04:43.702Z,68.35
2022-08-25T01:05:41.776Z,68.65
2022-08-25T01:06:40.773Z,68.75
2022-08-25T01:07:40.753Z,68.85
2022-08-25T01:08:40.724Z,68.95
2022-08-25T01:09:40.730Z,68.95
2022-08-25T01:10:40.734Z,69.15
2022-08-25T01:11:40.705Z,69.15
2022-08-25T01:12:41.652Z,69.06
2022-08-25T01:13:40.690Z,68.95
2022-08-25T01:14:40.677Z,69.06
2022-08-25T01:15:40.744Z,69.15
2022-08-25T01:16:40.650Z,69.29
2022-08-25T01:17:40.639Z,69.49
2022-08-25T01:18:40.636Z,69.92
2022-08-25T01:19:40.624Z,70.12
2022-08-25T01:20:40.627Z,70.12
2022-08-25T01:21:40.594Z,70.23
2022-08-25T01:22:40.591Z,70.43
2022-08-25T01:23:40.570Z,70.43
2022-08-25T01:24:40.574Z,70.32
2022-08-25T01:25:40.559Z,70.12
2022-08-25T01:26:40.575Z,70.26
2022-08-25T01:27:41.479Z,70.56
2022-08-25T01:28:40.519Z,70.76
2022-08-25T01:29:40.743Z,71.06
2022-08-25T01:30:40.557Z,71.20
2022-08-25T01:31:40.527Z,71.40
2022-08-25T01:32:40.478Z,71.50
2022-08-25T01:33:40.453Z,71.50
2022-08-25T01:34:40.443Z,71.60
2022-08-25T01:35:40.451Z,71.50
2022-08-25T01:36:40.436Z,71.50
2022-08-25T01:37:40.404Z,71.50
2022-08-25T01:38:40.414Z,71.50
2022-08-25T01:39:40.393Z,71.60
2022-08-25T01:40:40.385Z,71.80
2022-08-25T01:41:40.526Z,71.70
2022-08-25T01:42:40.419Z,71.60
2022-08-25T01:43:40.342Z,71.70
2022-08-25T01:44:40.336Z,71.70
2022-08-25T01:45:40.333Z,71.80
2022-08-25T01:46:40.328Z,71.70
2022-08-25T01:47:40.305Z,71.77
2022-08-25T01:48:40.292Z,71.67
2022-08-25T01:49:40.289Z,71.67
2022-08-25T01:50:40.268Z,71.67
2022-08-25T01:51:40.340Z,71.77
2022-08-25T01:52:40.269Z,71.77
2022-08-25T01:53:40.232Z,71.77
2022-08-25T01:54:40.240Z,71.77
2022-08-25T01:55:41.153Z,71.77
2022-08-25T01:56:40.215Z,71.67
2022-08-25T01:57:40.183Z,71.77
2022-08-25T01:58:40.193Z,71.87
2022-08-25T01:59:40.170Z,71.91
2022-08-25T02:00:40.186Z,72.00
2022-08-25T02:01:40.260Z,72.00
2022-08-25T02:02:42.828Z,71.80
2022-08-25T02:03:42.092Z,71.91
2022-08-25T02:04:40.119Z,72.11
2022-08-25T02:05:40.104Z,72.00
2022-08-25T02:06:40.090Z,72.20
2022-08-25T02:07:40.097Z,72.11
2022-08-25T02:08:40.085Z,72.20
2022-08-25T02:09:40.072Z,72.31
2022-08-25T02:10:40.061Z,72.31
2022-08-25T02:11:40.039Z,72.20
2022-08-25T02:12:40.046Z,72.11
2022-08-25T02:13:40.027Z,72.31
2022-08-25T02:14:40.017Z,72.31
2022-08-25T02:15:39.998Z,72.41
2022-08-25T02:16:40.077Z,72.41
2022-08-25T02:17:39.995Z,72.31
2022-08-25T02:18:39.960Z,72.51
2022-08-25T02:19:39.950Z,72.51
2022-08-25T02:20:39.946Z,72.51
2022-08-25T02:21:39.987Z,72.41
2022-08-25T02:22:39.931Z,72.51
2022-08-25T02:23:39.932Z,72.61
2022-08-25T02:24:39.892Z,72.64
2022-08-25T02:25:39.889Z,72.74
2022-08-25T02:26:39.876Z,72.74
2022-08-25T02:27:39.897Z,72.74
2022-08-25T02:28:39.861Z,72.94
2022-08-25T02:29:39.884Z,72.85
2022-08-25T02:30:39.874Z,73.05
2022-08-25T02:31:40.482Z,72.94
2022-08-25T02:32:39.797Z,73.05
2022-08-25T02:33:39.788Z,73.14
2022-08-25T02:34:39.811Z,73.14
2022-08-25T02:35:39.777Z,73.05
2022-08-25T02:36:39.761Z,73.14
2022-08-25T02:37:39.757Z,73.08
2022-08-25T02:38:39.737Z,73.08
2022-08-25T02:39:39.749Z,73.08
2022-08-25T02:40:39.721Z,72.98
2022-08-25T02:41:39.709Z,72.98
2022-08-25T02:42:39.698Z,72.98
2022-08-25T02:43:39.682Z,72.88
2022-08-25T02:44:39.691Z,72.98
2022-08-25T02:45:39.731Z,73.08
2022-08-25T02:46:39.649Z,73.28
2022-08-25T02:47:39.640Z,73.38
2022-08-25T02:48:39.621Z,73.48
2022-08-25T02:49:39.641Z,73.48
2022-08-25T02:50:39.612Z,73.58
2022-08-25T02:51:39.617Z,73.68
2022-08-25T02:52:39.595Z,73.88
2022-08-25T02:53:39.578Z,73.88
2022-08-25T02:54:39.596Z,73.99
2022-08-25T02:55:39.581Z,73.99
2022-08-25T02:56:39.537Z,74.08
2022-08-25T02:57:39.575Z,73.99
2022-08-25T02:58:39.521Z,74.12
2022-08-25T02:59:39.509Z,74.12
2022-08-25T03:00:39.523Z,74.12
2022-08-25T03:01:39.491Z,74.22
2022-08-25T03:02:39.467Z,74.22
2022-08-25T03:03:39.606Z,74.22
2022-08-25T03:04:39.585Z,74.22
2022-08-25T03:05:39.466Z,74.32
2022-08-25T03:06:39.435Z,74.22
2022-08-25T03:07:39.805Z,74.22
2022-08-25T03:08:40.377Z,74.12
2022-08-25T03:09:40.357Z,74.12
2022-08-25T03:10:40.354Z,74.08
2022-08-25T03:11:39.369Z,74.08
2022-08-25T03:12:39.419Z,74.02
2022-08-25T03:13:39.353Z,74.12
2022-08-25T03:14:39.345Z,73.99
2022-08-25T03:15:39.342Z,74.08
2022-08-25T03:16:39.405Z,74.08
2022-08-25T03:17:39.308Z,74.19
2022-08-25T03:18:39.307Z,74.19
2022-08-25T03:19:39.308Z,73.99
2022-08-25T03:20:39.291Z,74.22
2022-08-25T03:21:39.281Z,74.12
2022-08-25T03:22:39.256Z,74.32
2022-08-25T03:23:39.244Z,74.43
2022-08-25T03:24:39.227Z,74.52
2022-08-25T03:25:39.235Z,74.63
2022-08-25T03:26:39.206Z,74.32
2022-08-25T03:27:39.243Z,74.12
2022-08-25T03:28:39.188Z,74.02
2022-08-25T03:29:39.177Z,74.02
2022-08-25T03:30:39.171Z,74.12
2022-08-25T03:31:39.277Z,74.12
2022-08-25T03:32:39.149Z,74.02
2022-08-25T03:33:39.117Z,74.02
2022-08-25T03:34:39.119Z,73.92
2022-08-25T03:35:39.102Z,74.02
2022-08-25T03:36:39.128Z,74.02
2022-08-25T03:37:39.092Z,74.12
2022-08-25T03:38:39.092Z,74.22
2022-08-25T03:39:39.079Z,74.32
2022-08-25T03:40:39.057Z,74.32
2022-08-25T03:41:39.042Z,74.43
2022-08-25T03:42:42.232Z,74.36
2022-08-25T03:43:40.020Z,74.56
2022-08-25T03:44:39.006Z,74.66
2022-08-25T03:45:39.041Z,74.76
2022-08-25T03:46:39.001Z,74.76
2022-08-25T03:47:38.977Z,74.66
2022-08-25T03:48:38.968Z,74.76
2022-08-25T03:49:38.976Z,74.76
2022-08-25T03:50:38.951Z,74.76
2022-08-25T03:51:38.932Z,74.96
2022-08-25T03:52:42.372Z,74.87
2022-08-25T03:53:38.926Z,74.96
2022-08-25T03:54:38.926Z,75.07
2022-08-25T03:55:38.886Z,75.27
2022-08-25T03:56:38.876Z,75.07
2022-08-25T03:57:38.879Z,75.27
2022-08-25T03:58:39.824Z,75.47
2022-08-25T03:59:38.852Z,75.60
2022-08-25T04:00:38.843Z,75.71
2022-08-25T04:01:38.882Z,75.71
2022-08-25T04:02:38.919Z,75.71
2022-08-25T04:03:38.808Z,75.91
2022-08-25T04:04:38.791Z,76.11
2022-08-25T04:05:38.798Z,76.21
2022-08-25T04:06:38.796Z,76.31
2022-08-25T04:07:38.771Z,76.31
2022-08-25T04:08:38.755Z,76.45
2022-08-25T04:09:38.750Z,76.45
2022-08-25T04:10:38.826Z,76.51
2022-08-25T04:11:38.740Z,76.42
2022-08-25T04:12:38.704Z,76.42
2022-08-25T04:13:38.693Z,76.31
2022-08-25T04:14:38.690Z,76.42
2022-08-25T04:15:38.714Z,76.42
2022-08-25T04:16:38.746Z,76.31
2022-08-25T04:17:38.653Z,76.31
2022-08-25T04:18:38.669Z,76.42
2022-08-25T04:19:38.624Z,76.31
2022-08-25T04:20:40.510Z,76.21
2022-08-25T04:21:38.674Z,76.11
2022-08-25T04:22:38.616Z,76.11
2022-08-25T04:23:38.587Z,76.01
2022-08-25T04:24:38.575Z,76.01
2022-08-25T04:25:38.568Z,76.01
2022-08-25T04:26:38.559Z,75.91
2022-08-25T04:27:38.537Z,75.81
2022-08-25T04:28:38.552Z,75.60
2022-08-25T04:29:38.517Z,75.60
2022-08-25T04:30:38.509Z,75.37
2022-08-25T04:31:38.559Z,75.16
2022-08-25T04:32:38.500Z,75.16
2022-08-25T04:33:38.479Z,75.16
2022-08-25T04:34:38.466Z,75.07
2022-08-25T04:35:38.465Z,75.27
2022-08-25T04:36:38.466Z,75.40
2022-08-25T04:37:38.433Z,75.27
2022-08-25T04:38:38.433Z,75.37
2022-08-25T04:39:38.411Z,75.27
2022-08-25T04:40:38.410Z,75.07
2022-08-25T04:41:38.404Z,74.96
2022-08-25T04:42:38.384Z,75.07
2022-08-25T04:43:38.389Z,75.07
2022-08-25T04:44:38.355Z,75.16
2022-08-25T04:45:38.431Z,75.16
2022-08-25T04:46:38.360Z,75.16
2022-08-25T04:47:38.333Z,75.07
2022-08-25T04:48:38.337Z,74.87
2022-08-25T04:49:38.306Z,74.66
2022-08-25T04:50:38.308Z,74.66
2022-08-25T04:51:38.308Z,74.36
2022-08-25T04:52:38.267Z,74.36
2022-08-25T04:53:38.258Z,74.46
2022-08-25T04:54:38.259Z,74.46
2022-08-25T04:55:38.241Z,74.36
2022-08-25T04:56:38.225Z,74.26
2022-08-25T04:57:38.230Z,74.26
2022-08-25T04:58:38.210Z,74.36
2022-08-25T04:59:38.211Z,74.36
2022-08-25T05:00:39.171Z,74.36
2022-08-25T05:01:38.163Z,74.36
2022-08-25T05:02:38.164Z,74.26
2022-08-25T05:03:38.186Z,74.36
2022-08-25T05:04:38.240Z,74.36
2022-08-25T05:05:38.127Z,74.46
2022-08-25T05:06:38.123Z,74.66
2022-08-25T05:07:38.104Z,74.66
2022-08-25T05:08:38.135Z,74.66
2022-08-25T05:09:38.077Z,74.87
2022-08-25T05:10:38.080Z,74.96
2022-08-25T05:11:38.064Z,75.07
2022-08-25T05:12:38.055Z,75.07
2022-08-25T05:13:38.040Z,75.07
2022-08-25T05:14:38.049Z,75.16
2022-08-25T05:15:38.014Z,75.07
2022-08-25T05:16:38.086Z,74.87
2022-08-25T05:17:38.008Z,74.87
2022-08-25T05:18:37.997Z,74.87
2022-08-25T05:19:37.988Z,74.73
2022-08-25T05:20:37.968Z,74.73
2022-08-25T05:21:37.972Z,74.73
2022-08-25T05:22:37.959Z,74.73
2022-08-25T05:23:37.930Z,74.73
2022-08-25T05:24:37.911Z,74.73
2022-08-25T05:25:37.911Z,74.93
2022-08-25T05:26:37.891Z,75.03
2022-08-25T05:27:37.911Z,75.43
2022-08-25T05:28:37.902Z,75.43
2022-08-25T05:29:37.873Z,75.34
2022-08-25T05:30:37.857Z,75.34
2022-08-25T05:31:42.433Z,75.34
2022-08-25T05:32:38.940Z,75.34
2022-08-25T05:33:37.830Z,75.43
2022-08-25T05:34:37.819Z,75.23
2022-08-25T05:35:37.809Z,75.10
2022-08-25T05:36:37.798Z,74.59
2022-08-25T05:37:37.799Z,74.35
2022-08-25T05:38:37.797Z,74.15
2022-08-25T05:39:37.792Z,73.65
2022-08-25T05:40:37.745Z,73.52
2022-08-25T05:41:37.746Z,73.21
2022-08-25T05:42:37.714Z,73.01
2022-08-25T05:43:37.721Z,73.41
2022-08-25T05:44:37.698Z,73.21
2022-08-25T05:45:37.767Z,73.41
2022-08-25T05:46:37.712Z,73.41
2022-08-25T05:47:37.693Z,73.41
2022-08-25T05:48:37.663Z,73.38
2022-08-25T05:49:37.642Z,73.58
2022-08-25T05:50:37.629Z,73.58
2022-08-25T05:51:37.636Z,73.48
2022-08-25T05:52:37.610Z,73.28
2022-08-25T05:53:37.600Z,73.28
2022-08-25T05:54:37.591Z,73.08
2022-08-25T05:55:37.572Z,72.84
2022-08-25T05:56:37.594Z,72.44
2022-08-25T05:57:37.580Z,72.64
2022-08-25T05:58:37.543Z,72.64
2022-08-25T05:59:37.543Z,72.54
2022-08-25T06:00:37.562Z,72.54
2022-08-25T06:01:37.511Z,72.64
2022-08-25T06:02:37.493Z,73.04
2022-08-25T06:03:37.560Z,72.84
2022-08-25T06:04:41.105Z,72.94
2022-08-25T06:05:37.480Z,72.81
2022-08-25T06:06:37.476Z,72.61
2022-08-25T06:07:37.451Z,72.71
2022-08-25T06:08:37.428Z,72.71
2022-08-25T06:09:37.443Z,72.57
2022-08-25T06:10:37.418Z,72.57
2022-08-25T06:11:37.397Z,72.47
2022-08-25T06:12:37.389Z,72.37
2022-08-25T06:13:37.389Z,71.97
2022-08-25T06:14:37.383Z,72.27
2022-08-25T06:15:37.350Z,71.97
2022-08-25T06:16:37.389Z,72.17
2022-08-25T06:17:37.354Z,72.47
2022-08-25T06:18:37.331Z,72.57
2022-08-25T06:19:37.311Z,72.37
2022-08-25T06:20:37.308Z,72.37
2022-08-25T06:21:37.288Z,72.07
2022-08-25T06:22:37.282Z,72.07
2022-08-25T06:23:37.255Z,71.94
2022-08-25T06:24:37.416Z,71.77
2022-08-25T06:25:37.261Z,71.94
2022-08-25T06:26:37.239Z,71.83
2022-08-25T06:27:37.238Z,71.94
2022-08-25T06:28:37.200Z,71.63
2022-08-25T06:29:37.199Z,71.53
2022-08-25T06:30:37.188Z,71.63
2022-08-25T06:31:37.259Z,71.63
2022-08-25T06:32:37.163Z,71.30
2022-08-25T06:33:37.162Z,71.30
2022-08-25T06:34:37.159Z,71.50
2022-08-25T06:35:37.136Z,71.30
2022-08-25T06:36:37.140Z,70.89
2022-08-25T06:37:37.114Z,71.06
2022-08-25T06:38:37.111Z,70.56
2022-08-25T06:39:37.108Z,70.46
2022-08-25T06:40:37.086Z,70.36
2022-08-25T06:41:37.345Z,70.06
2022-08-25T06:42:37.187Z,69.76
2022-08-25T06:43:37.043Z,69.53
2022-08-25T06:44:37.033Z,69.53
2022-08-25T06:45:37.041Z,70.12
2022-08-25T06:46:37.349Z,69.82
2022-08-25T06:47:37.000Z,69.42
2022-08-25T06:48:36.987Z,69.92
2022-08-25T06:49:36.990Z,70.12
2022-08-25T06:50:36.974Z,69.53
2022-08-25T06:51:36.957Z,69.53
2022-08-25T06:52:36.973Z,69.42
2022-08-25T06:53:36.936Z,69.39
2022-08-25T06:54:36.920Z,69.49
2022-08-25T06:55:36.930Z,69.49
2022-08-25T06:56:36.908Z,69.09
2022-08-25T06:57:36.910Z,69.46
2022-08-25T06:58:36.873Z,68.96
2022-08-25T06:59:36.887Z,68.85
2022-08-25T07:00:36.908Z,68.76
2022-08-25T07:01:37.036Z,68.52
2022-08-25T07:02:36.888Z,68.42
2022-08-25T07:03:36.829Z,68.42
2022-08-25T07:04:36.820Z,68.42
2022-08-25T07:05:44.211Z,68.52
2022-08-25T07:06:37.853Z,68.22
2022-08-25T07:07:42.874Z,67.92
2022-08-25T07:08:37.777Z,68.42
2022-08-25T07:09:39.137Z,68.39
2022-08-25T07:10:36.775Z,68.19
2022-08-25T07:11:36.741Z,67.89
2022-08-25T07:12:36.738Z,67.89
2022-08-25T07:13:36.733Z,67.79
2022-08-25T07:14:36.695Z,67.89
2022-08-25T07:15:36.705Z,67.76
2022-08-25T07:16:36.739Z,67.55
2022-08-25T07:17:36.695Z,67.66
2022-08-25T07:18:36.676Z,67.46
2022-08-25T07:19:36.666Z,67.36
2022-08-25T07:20:36.634Z,67.36
2022-08-25T07:21:36.660Z,67.63
2022-08-25T07:22:36.631Z,67.43
2022-08-25T07:23:36.611Z,67.32
2022-08-25T07:24:36.623Z,67.43
2022-08-25T07:25:36.595Z,67.32
2022-08-25T07:26:38.196Z,67.59
2022-08-25T07:27:36.564Z,67.59
2022-08-25T07:28:36.548Z,67.40
2022-08-25T07:29:36.561Z,66.99
2022-08-25T07:30:37.523Z,67.09
2022-08-25T07:31:36.597Z,66.96
2022-08-25T07:32:36.506Z,67.16
2022-08-25T07:33:36.506Z,67.16
2022-08-25T07:34:36.496Z,66.76
2022-08-25T07:35:37.442Z,66.86
2022-08-25T07:36:36.462Z,67.16
2022-08-25T07:37:48.843Z,67.53
2022-08-25T07:38:37.567Z,68.13
2022-08-25T07:39:36.445Z,68.13
2022-08-25T07:40:36.483Z,68.43
2022-08-25T07:41:36.413Z,67.83
2022-08-25T07:42:36.435Z,68.13
2022-08-25T07:43:36.384Z,68.73
2022-08-25T07:44:36.372Z,68.59
2022-08-25T07:45:36.387Z,68.89
2022-08-25T07:46:37.445Z,69.09
2022-08-25T07:47:36.346Z,68.26
2022-08-25T07:48:36.339Z,68.26
2022-08-25T07:49:39.724Z,69.06
2022-08-25T07:50:36.328Z,68.56
2022-08-25T07:51:36.308Z,68.76
2022-08-25T07:52:36.287Z,68.16
2022-08-25T07:53:36.279Z,66.93
2022-08-25T07:54:38.236Z,66.83
2022-08-25T07:55:36.263Z,68.53
2022-08-25T07:56:36.245Z,68.00
2022-08-25T07:57:36.249Z,65.91
2022-08-25T07:58:36.248Z,68.19
2022-08-25T07:59:39.171Z,67.66
2022-08-25T08:00:36.193Z,68.56
2022-08-25T08:01:36.231Z,68.26
2022-08-25T08:02:36.238Z,68.37
2022-08-25T08:03:50.182Z,67.86
2022-08-25T08:04:37.150Z,67.47
2022-08-25T08:05:36.148Z,67.24
2022-08-25T08:06:36.161Z,67.43
2022-08-25T08:07:43.584Z,68.63
2022-08-25T08:08:37.107Z,68.33
2022-08-25T08:09:36.158Z,68.73
2022-08-25T08:11:03.146Z,67.30
2022-08-25T08:11:37.085Z,68.00
2022-08-25T08:12:36.069Z,67.90
2022-08-25T08:13:40.790Z,68.46
2022-08-25T08:14:37.058Z,67.86
2022-08-25T08:15:37.040Z,67.57
2022-08-25T08:16:36.103Z,68.04
2022-08-25T08:17:36.017Z,68.33
2022-08-25T08:18:35.990Z,67.83
2022-08-25T08:19:36.953Z,67.24
2022-08-25T08:20:41.104Z,67.33
2022-08-25T08:21:39.437Z,67.60
2022-08-25T08:22:35.951Z,67.40
2022-08-25T08:23:35.953Z,67.00
2022-08-25T08:24:54.875Z,66.71
2022-08-25T08:25:36.953Z,66.91
2022-08-25T08:26:57.561Z,66.61
2022-08-25T08:27:36.898Z,67.18
2022-08-25T08:28:35.896Z,66.67
2022-08-25T08:29:35.876Z,66.28
2022-08-25T08:30:35.904Z,66.08
2022-08-25T08:31:35.897Z,67.07
2022-08-25T08:32:53.268Z,66.67
2022-08-25T08:33:40.744Z,66.38
2022-08-25T08:34:35.826Z,66.25
2022-08-25T08:35:35.821Z,65.85
2022-08-25T08:36:35.800Z,65.35
2022-08-25T08:37:35.807Z,65.35
2022-08-25T08:38:37.781Z,65.16
2022-08-25T08:39:35.776Z,65.12
2022-08-25T08:40:35.792Z,64.83
2022-08-25T08:41:54.266Z,65.02
2022-08-25T08:42:36.733Z,65.02
2022-08-25T08:43:35.734Z,65.12
2022-08-25T08:44:35.719Z,64.73
2022-08-25T08:45:40.425Z,64.83
2022-08-25T08:46:36.751Z,64.92
2022-08-25T08:47:35.692Z,64.83
2022-08-25T08:48:35.689Z,64.53
2022-08-25T08:49:35.660Z,64.92
2022-08-25T08:50:35.643Z,65.09
2022-08-25T08:51:35.671Z,64.59
2022-08-25T08:52:35.620Z,64.30
2022-08-25T08:53:35.638Z,64.79
2022-08-25T08:54:36.254Z,64.50
2022-08-25T08:55:35.590Z,64.40
2022-08-25T08:56:35.597Z,64.40
2022-08-25T08:57:35.571Z,63.97
2022-08-25T08:58:35.666Z,63.57
2022-08-25T08:59:35.565Z,63.37
2022-08-25T09:00:35.556Z,63.48
2022-08-25T09:01:35.592Z,63.28
2022-08-25T09:02:39.599Z,62.88
2022-08-25T09:03:36.582Z,62.58
2022-08-25T09:04:35.505Z,62.98
2022-08-25T09:05:41.003Z,62.65
2022-08-25T09:06:36.473Z,62.45
2022-08-25T09:07:35.475Z,62.65
2022-08-25T09:08:35.463Z,62.26
2022-08-25T09:09:36.124Z,62.15
2022-08-25T09:10:35.463Z,61.96
2022-08-25T09:11:35.439Z,62.26
2022-08-25T09:12:35.418Z,62.15
2022-08-25T09:13:35.418Z,61.56
2022-08-25T09:14:35.440Z,61.46
2022-08-25T09:15:41.302Z,61.16
2022-08-25T09:16:36.405Z,61.56
2022-08-25T09:17:35.348Z,61.56
2022-08-25T09:18:40.375Z,61.63
2022-08-25T09:19:36.353Z,61.63
2022-08-25T09:20:36.316Z,61.13
2022-08-25T09:21:35.316Z,60.83
2022-08-25T09:22:36.696Z,60.34
2022-08-25T09:23:35.282Z,60.14
2022-08-25T09:24:35.284Z,60.14
2022-08-25T09:25:52.282Z,60.02
2022-08-25T09:26:36.269Z,60.41
2022-08-25T09:27:35.266Z,60.02
2022-08-25T09:28:35.289Z,60.24
2022-08-25T09:29:35.233Z,60.14
2022-08-25T09:30:35.237Z,60.14
2022-08-25T09:31:35.228Z,60.41
2022-08-25T09:32:35.186Z,60.61
2022-08-25T09:33:35.690Z,60.51
2022-08-25T09:34:35.188Z,60.14
2022-08-25T09:35:35.180Z,60.24
2022-08-25T09:36:37.733Z,59.92
2022-08-25T09:37:35.151Z,60.11
2022-08-25T09:38:35.117Z,59.92
2022-08-25T09:39:35.141Z,59.81
2022-08-25T09:40:35.162Z,59.81
2022-08-25T09:41:35.079Z,59.52
2022-08-25T09:42:35.082Z,59.22
2022-08-25T09:43:35.065Z,59.72
2022-08-25T09:44:35.083Z,60.11
2022-08-25T09:45:35.072Z,60.11
2022-08-25T09:46:35.116Z,59.92
2022-08-25T09:47:35.024Z,59.52
2022-08-25T09:48:39.381Z,60.02
2022-08-25T09:49:36.018Z,59.42
2022-08-25T09:50:35.152Z,59.19
2022-08-25T09:51:38.173Z,59.39
2022-08-25T09:52:36.022Z,59.00
2022-08-25T09:53:35.125Z,58.47
2022-08-25T09:54:44.003Z,58.20
2022-08-25T09:55:35.936Z,58.50
2022-08-25T09:56:35.009Z,58.07
2022-08-25T09:57:34.975Z,58.47
2022-08-25T09:58:34.910Z,58.37
2022-08-25T09:59:35.884Z,58.37
2022-08-25T10:00:34.887Z,57.65
2022-08-25T10:01:35.175Z,58.05
2022-08-25T10:02:34.882Z,57.56
2022-08-25T10:03:36.820Z,57.56
2022-08-25T10:04:34.882Z,57.26
2022-08-25T10:05:34.927Z,57.06
2022-08-25T10:06:34.845Z,56.76
2022-08-25T10:07:34.808Z,56.74
2022-08-25T10:08:34.808Z,55.45
2022-08-25T10:09:34.833Z,55.87
2022-08-25T10:10:35.763Z,56.37
2022-08-25T10:11:34.776Z,56.67
2022-08-25T10:12:34.758Z,57.09
2022-08-25T10:13:34.735Z,57.90
2022-08-25T10:14:34.745Z,57.98
2022-08-25T10:15:34.789Z,57.58
2022-08-25T10:16:36.110Z,57.09
2022-08-25T10:17:34.688Z,56.86
2022-08-25T10:18:34.684Z,56.76
2022-08-25T10:19:35.621Z,57.06
2022-08-25T10:20:35.091Z,56.86
2022-08-25T10:21:34.682Z,56.79
2022-08-25T10:22:34.664Z,56.76
2022-08-25T10:23:34.655Z,56.86
2022-08-25T10:24:35.033Z,56.96
2022-08-25T10:25:34.627Z,56.46
2022-08-25T10:26:35.241Z,55.97
2022-08-25T10:27:34.611Z,56.17
2022-08-25T10:28:34.574Z,56.46
2022-08-25T10:29:34.563Z,55.77
2022-08-25T10:30:34.608Z,55.47
2022-08-25T10:31:34.968Z,55.38
2022-08-25T10:32:34.545Z,55.87
2022-08-25T10:33:34.517Z,55.77
2022-08-25T10:34:35.709Z,55.94
2022-08-25T10:35:34.504Z,55.65
2022-08-25T10:36:34.505Z,55.05
2022-08-25T10:37:34.472Z,55.75
2022-08-25T10:38:36.218Z,55.75
2022-08-25T10:39:36.927Z,56.04
2022-08-25T10:40:35.547Z,55.94
2022-08-25T10:41:34.475Z,55.65
2022-08-25T10:42:34.418Z,56.04
2022-08-25T10:43:34.407Z,55.55
2022-08-25T10:44:34.421Z,54.56
2022-08-25T10:45:34.400Z,54.46
2022-08-25T10:46:34.426Z,54.63
2022-08-25T10:47:34.368Z,54.73
2022-08-25T10:48:34.354Z,54.46
2022-08-25T10:49:34.347Z,54.06
2022-08-25T10:50:34.343Z,53.94
2022-08-25T10:51:34.336Z,53.94
2022-08-25T10:52:34.336Z,54.34
2022-08-25T10:53:34.314Z,54.73
2022-08-25T10:54:34.310Z,54.53
2022-08-25T10:55:34.277Z,54.63
2022-08-25T10:56:35.276Z,54.80
2022-08-25T10:57:35.345Z,54.90
2022-08-25T10:58:34.258Z,54.90
2022-08-25T10:59:34.272Z,54.02
2022-08-25T11:00:34.229Z,54.02
2022-08-25T11:01:42.899Z,54.09
2022-08-25T11:02:35.222Z,54.48
2022-08-25T11:03:35.200Z,54.28
2022-08-25T11:04:34.210Z,54.31
2022-08-25T11:05:34.227Z,54.90
2022-08-25T11:06:35.109Z,55.10
2022-08-25T11:07:34.151Z,55.10
2022-08-25T11:08:34.143Z,55.10
2022-08-25T11:09:36.014Z,54.51
2022-08-25T11:10:34.146Z,55.10
2022-08-25T11:11:35.015Z,55.00
2022-08-25T11:12:34.095Z,54.51
2022-08-25T11:13:34.091Z,54.61
2022-08-25T11:14:34.748Z,54.80
2022-08-25T11:15:34.075Z,53.52
2022-08-25T11:16:34.125Z,54.11
2022-08-25T11:17:34.071Z,54.71
2022-08-25T11:18:34.027Z,54.51
2022-08-25T11:19:34.027Z,54.71
2022-08-25T11:20:34.027Z,55.60
2022-08-25T11:21:34.900Z,55.40
2022-08-25T11:22:33.993Z,54.80
2022-08-25T11:23:33.968Z,54.51
2022-08-25T11:24:33.963Z,54.71
2022-08-25T11:25:33.980Z,54.80
2022-08-25T11:26:36.806Z,55.10
2022-08-25T11:27:33.932Z,54.61
2022-08-25T11:28:33.918Z,54.61
2022-08-25T11:29:33.913Z,54.58
2022-08-25T11:30:33.956Z,54.21
2022-08-25T11:31:33.897Z,54.41
2022-08-25T11:32:33.892Z,54.34
2022-08-25T11:33:33.893Z,53.92
2022-08-25T11:34:33.867Z,53.81
2022-08-25T11:35:33.897Z,53.94
2022-08-25T11:36:33.830Z,54.24
2022-08-25T11:37:33.815Z,53.81
2022-08-25T11:38:33.811Z,53.22
2022-08-25T11:39:34.642Z,53.33
2022-08-25T11:40:34.447Z,53.03
2022-08-25T11:41:33.795Z,52.53
2022-08-25T11:42:33.819Z,52.24
2022-08-25T11:43:35.700Z,52.80
2022-08-25T11:44:33.760Z,52.80
2022-08-25T11:45:33.745Z,53.10
2022-08-25T11:46:33.862Z,52.78
2022-08-25T11:47:35.693Z,52.21
2022-08-25T11:48:33.703Z,52.61
2022-08-25T11:49:33.714Z,52.28
2022-08-25T11:50:35.194Z,51.79
2022-08-25T11:51:33.922Z,51.69
2022-08-25T11:52:34.841Z,51.99
2022-08-25T11:53:33.657Z,52.19
2022-08-25T11:54:33.646Z,52.39
2022-08-25T11:55:33.632Z,52.58
2022-08-25T11:56:34.613Z,53.10
2022-08-25T11:57:33.593Z,53.99
2022-08-25T11:58:33.596Z,53.30
2022-08-25T11:59:33.589Z,53.17
2022-08-25T12:00:33.602Z,53.20
2022-08-25T12:01:33.568Z,53.33
2022-08-25T12:02:33.563Z,53.42
2022-08-25T12:03:33.563Z,53.52
2022-08-25T12:04:33.748Z,53.33
2022-08-25T12:05:33.556Z,53.52
2022-08-25T12:06:33.539Z,53.72
2022-08-25T12:07:33.493Z,53.12
2022-08-25T12:08:33.525Z,53.10
2022-08-25T12:09:33.482Z,52.34
2022-08-25T12:10:33.493Z,52.73
2022-08-25T12:11:33.452Z,52.93
2022-08-25T12:12:33.432Z,52.91
2022-08-25T12:13:33.453Z,53.10
2022-08-25T12:14:33.456Z,53.33
2022-08-25T12:15:33.406Z,53.42
2022-08-25T12:16:33.452Z,53.45
2022-08-25T12:17:33.396Z,53.33
2022-08-25T12:18:33.561Z,53.10
2022-08-25T12:19:33.356Z,52.41
2022-08-25T12:20:33.359Z,53.03
2022-08-25T12:21:33.347Z,53.25
2022-08-25T12:22:33.457Z,52.76
2022-08-25T12:23:33.391Z,52.36
2022-08-25T12:24:33.327Z,52.46
2022-08-25T12:25:33.878Z,52.86
2022-08-25T12:26:33.302Z,53.05
2022-08-25T12:27:33.562Z,52.76
2022-08-25T12:28:35.007Z,52.53
2022-08-25T12:29:33.259Z,52.51
2022-08-25T12:30:36.738Z,52.01
2022-08-25T12:31:33.258Z,52.11
2022-08-25T12:32:33.227Z,51.79
2022-08-25T12:33:33.215Z,51.79
2022-08-25T12:34:33.216Z,51.69
2022-08-25T12:35:33.190Z,51.00
2022-08-25T12:36:33.486Z,50.81
2022-08-25T12:37:33.167Z,50.12
2022-08-25T12:38:33.156Z,50.02
2022-08-25T12:39:33.137Z,50.71
2022-08-25T12:40:33.149Z,50.51
2022-08-25T12:41:33.529Z,50.61
2022-08-25T12:42:33.426Z,51.00
2022-08-25T12:43:33.524Z,51.13
2022-08-25T12:44:33.106Z,51.32
2022-08-25T12:45:33.125Z,51.13
2022-08-25T12:46:33.089Z,51.15
2022-08-25T12:47:33.057Z,51.05
2022-08-25T12:48:33.044Z,51.35
2022-08-25T12:49:33.043Z,51.45
2022-08-25T12:50:33.479Z,52.04
2022-08-25T12:51:33.026Z,51.75
2022-08-25T12:52:33.025Z,51.92